sensor_id;sensor_type;location;lat;lon;timestamp;P1;durP1;ratioP1;P2;durP2;ratioP2
54999;SDS011;40897;47.998;18.856;2024-02-15T00:00:00;13.5;;;13.1;;
54999;SDS011;40897;47.998;18.856;2024-02-15T00:05:00;7.1;;;7.1;;
54999;SDS011;40897;47.998;18.856;2024-02-15T00:10:00;6.5;;;6.5;;
54999;SDS011;40897;47.998;18.856;2024-02-15T00:15:00;12.6;;;12.4;;
54999;SDS011;40897;47.998;18.856;2024-02-15T00:20:00;16.7;;;15.7;;
54999;SDS011;40897;47.998;18.856;2024-02-15T00:25:00;16.0;;;15.1;;
54999;SDS011;40897;47.998;18.856;2024-02-15T00:30:00;13.9;;;13.5;;
54999;SDS011;40897;47.998;18.856;2024-02-15T00:35:00;14.5;;;14.2;;
54999;SDS011;40897;47.998;18.856;2024-02-15T00:40:00;13.5;;;13.1;;
54999;SDS011;40897;47.998;18.856;2024-02-15T00:45:00;13.7;;;13.4;;
54999;SDS011;40897;47.998;18.856;2024-02-15T00:50:00;10.9;;;10.6;;
54999;SDS011;40897;47.998;18.856;2024-02-15T00:55:00;12.2;;;12.0;;
54999;SDS011;40897;47.998;18.856;2024-02-15T01:00:00;12.6;;;12.3;;
54999;SDS011;40897;47.998;18.856;2024-02-15T01:05:00;11.4;;;11.2;;
54999;SDS011;40897;47.998;18.856;2024-02-15T01:10:00;9.6;;;9.5;;
54999;SDS011;40897;47.998;18.856;2024-02-15T01:15:00;15.1;;;14.8;;
54999;SDS011;40897;47.998;18.856;2024-02-15T01:20:00;15.1;;;14.6;;
54999;SDS011;40897;47.998;18.856;2024-02-15T01:25:00;14.6;;;14.2;;
54999;SDS011;40897;47.998;18.856;2024-02-15T01:30:00;15.0;;;14.6;;
54999;SDS011;40897;47.998;18.856;2024-02-15T01:35:00;14.0;;;13.7;;
54999;SDS011;40897;47.998;18.856;2024-02-15T01:40:00;13.0;;;12.6;;
54999;SDS011;40897;47.998;18.856;2024-02-15T01:45:00;12.6;;;12.4;;
54999;SDS011;40897;47.998;18.856;2024-02-15T01:50:00;12.3;;;11.6;;
54999;SDS011;40897;47.998;18.856;2024-02-15T01:55:00;15.3;;;14.4;;
54999;SDS011;40897;47.998;18.856;2024-02-15T02:00:00;17.5;;;16.8;;
54999;SDS011;40897;47.998;18.856;2024-02-15T02:05:00;12.9;;;12.6;;
54999;SDS011;40897;47.998;18.856;2024-02-15T02:10:00;11.9;;;11.8;;
54999;SDS011;40897;47.998;18.856;2024-02-15T02:15:00;12.4;;;12.1;;
54999;SDS011;40897;47.998;18.856;2024-02-15T02:20:00;14.5;;;14.1;;
54999;SDS011;40897;47.998;18.856;2024-02-15T02:25:02;15.8;;;15.1;;
54999;SDS011;40897;47.998;18.856;2024-02-15T02:30:00;16.8;;;16.1;;
54999;SDS011;40897;47.998;18.856;2024-02-15T02:35:00;13.4;;;13.0;;
54999;SDS011;40897;47.998;18.856;2024-02-15T02:40:00;14.1;;;13.6;;
54999;SDS011;40897;47.998;18.856;2024-02-15T02:45:00;105.7;;;79.4;;
54999;SDS011;40897;47.998;18.856;2024-02-15T02:50:00;18.5;;;17.3;;
54999;SDS011;40897;47.998;18.856;2024-02-15T02:55:00;14.6;;;14.1;;
54999;SDS011;40897;47.998;18.856;2024-02-15T03:00:01;13.1;;;12.8;;
54999;SDS011;40897;47.998;18.856;2024-02-15T03:05:01;12.7;;;12.5;;
54999;SDS011;40897;47.998;18.856;2024-02-15T03:10:00;16.3;;;15.3;;
54999;SDS011;40897;47.998;18.856;2024-02-15T03:15:00;16.0;;;14.9;;
54999;SDS011;40897;47.998;18.856;2024-02-15T03:20:00;14.4;;;13.8;;
54999;SDS011;40897;47.998;18.856;2024-02-15T03:25:00;16.9;;;16.2;;
54999;SDS011;40897;47.998;18.856;2024-02-15T03:30:00;17.8;;;16.3;;
54999;SDS011;40897;47.998;18.856;2024-02-15T03:35:00;15.4;;;14.7;;
54999;SDS011;40897;47.998;18.856;2024-02-15T03:40:00;14.5;;;14.1;;
54999;SDS011;40897;47.998;18.856;2024-02-15T03:45:00;14.2;;;13.7;;
54999;SDS011;40897;47.998;18.856;2024-02-15T03:50:00;14.1;;;13.8;;
54999;SDS011;40897;47.998;18.856;2024-02-15T03:55:00;15.5;;;14.8;;
54999;SDS011;40897;47.998;18.856;2024-02-15T04:00:00;24.0;;;21.6;;
54999;SDS011;40897;47.998;18.856;2024-02-15T04:05:00;16.9;;;15.8;;
54999;SDS011;40897;47.998;18.856;2024-02-15T04:10:00;15.8;;;14.9;;
54999;SDS011;40897;47.998;18.856;2024-02-15T04:15:00;27.6;;;24.6;;
54999;SDS011;40897;47.998;18.856;2024-02-15T04:20:00;16.9;;;15.6;;
54999;SDS011;40897;47.998;18.856;2024-02-15T04:25:00;9.7;;;9.6;;
54999;SDS011;40897;47.998;18.856;2024-02-15T04:30:00;11.4;;;11.2;;
54999;SDS011;40897;47.998;18.856;2024-02-15T04:35:00;18.8;;;18.0;;
54999;SDS011;40897;47.998;18.856;2024-02-15T04:40:00;22.0;;;20.9;;
54999;SDS011;40897;47.998;18.856;2024-02-15T04:45:00;24.8;;;24.1;;
54999;SDS011;40897;47.998;18.856;2024-02-15T04:50:00;21.9;;;21.1;;
54999;SDS011;40897;47.998;18.856;2024-02-15T04:55:00;28.3;;;27.3;;
54999;SDS011;40897;47.998;18.856;2024-02-15T05:00:00;23.6;;;22.6;;
54999;SDS011;40897;47.998;18.856;2024-02-15T05:05:00;22.8;;;22.0;;
54999;SDS011;40897;47.998;18.856;2024-02-15T05:10:00;20.6;;;20.2;;
54999;SDS011;40897;47.998;18.856;2024-02-15T05:15:00;24.5;;;23.3;;
54999;SDS011;40897;47.998;18.856;2024-02-15T05:20:00;23.4;;;22.7;;
54999;SDS011;40897;47.998;18.856;2024-02-15T05:25:00;23.4;;;22.2;;
54999;SDS011;40897;47.998;18.856;2024-02-15T05:30:00;22.2;;;21.6;;
54999;SDS011;40897;47.998;18.856;2024-02-15T05:35:00;21.6;;;21.0;;
54999;SDS011;40897;47.998;18.856;2024-02-15T05:40:00;22.7;;;21.8;;
54999;SDS011;40897;47.998;18.856;2024-02-15T05:45:14;28.8;;;28.4;;
54999;SDS011;40897;47.998;18.856;2024-02-15T05:50:00;29.9;;;29.3;;
54999;SDS011;40897;47.998;18.856;2024-02-15T05:55:00;26.1;;;25.3;;
54999;SDS011;40897;47.998;18.856;2024-02-15T06:00:00;22.0;;;21.0;;
54999;SDS011;40897;47.998;18.856;2024-02-15T06:05:00;25.0;;;24.5;;
54999;SDS011;40897;47.998;18.856;2024-02-15T06:10:00;25.6;;;25.1;;
54999;SDS011;40897;47.998;18.856;2024-02-15T06:15:03;25.6;;;24.9;;
54999;SDS011;40897;47.998;18.856;2024-02-15T06:20:00;25.3;;;24.5;;
54999;SDS011;40897;47.998;18.856;2024-02-15T06:25:00;25.4;;;24.9;;
54999;SDS011;40897;47.998;18.856;2024-02-15T06:30:00;28.6;;;26.8;;
54999;SDS011;40897;47.998;18.856;2024-02-15T06:35:00;27.5;;;26.5;;
54999;SDS011;40897;47.998;18.856;2024-02-15T06:40:00;30.2;;;29.4;;
54999;SDS011;40897;47.998;18.856;2024-02-15T06:45:00;25.6;;;24.9;;
54999;SDS011;40897;47.998;18.856;2024-02-15T06:50:00;26.5;;;26.0;;
54999;SDS011;40897;47.998;18.856;2024-02-15T06:55:00;22.8;;;22.3;;
54999;SDS011;40897;47.998;18.856;2024-02-15T07:00:01;25.3;;;24.6;;
54999;SDS011;40897;47.998;18.856;2024-02-15T07:05:00;20.3;;;20.3;;
54999;SDS011;40897;47.998;18.856;2024-02-15T07:10:00;19.3;;;19.2;;
54999;SDS011;40897;47.998;18.856;2024-02-15T07:15:00;21.8;;;21.7;;
54999;SDS011;40897;47.998;18.856;2024-02-15T07:20:00;22.5;;;22.4;;
54999;SDS011;40897;47.998;18.856;2024-02-15T07:25:00;21.5;;;21.0;;
54999;SDS011;40897;47.998;18.856;2024-02-15T07:30:00;20.8;;;20.6;;
54999;SDS011;40897;47.998;18.856;2024-02-15T07:35:00;22.5;;;22.2;;
54999;SDS011;40897;47.998;18.856;2024-02-15T07:40:00;23.2;;;22.9;;
54999;SDS011;40897;47.998;18.856;2024-02-15T07:45:00;26.3;;;26.0;;
54999;SDS011;40897;47.998;18.856;2024-02-15T07:50:00;32.8;;;32.2;;
54999;SDS011;40897;47.998;18.856;2024-02-15T07:55:00;36.1;;;35.1;;
54999;SDS011;40897;47.998;18.856;2024-02-15T08:00:00;24.0;;;23.6;;
54999;SDS011;40897;47.998;18.856;2024-02-15T08:05:00;44.0;;;39.4;;
54999;SDS011;40897;47.998;18.856;2024-02-15T08:10:00;33.8;;;32.1;;
54999;SDS011;40897;47.998;18.856;2024-02-15T08:15:00;16.8;;;16.5;;
54999;SDS011;40897;47.998;18.856;2024-02-15T08:20:00;20.3;;;19.7;;
54999;SDS011;40897;47.998;18.856;2024-02-15T08:25:00;20.8;;;20.2;;
54999;SDS011;40897;47.998;18.856;2024-02-15T08:30:00;24.2;;;22.6;;
54999;SDS011;40897;47.998;18.856;2024-02-15T08:35:00;23.0;;;21.9;;
54999;SDS011;40897;47.998;18.856;2024-02-15T08:40:03;22.2;;;21.5;;
54999;SDS011;40897;47.998;18.856;2024-02-15T08:45:00;23.7;;;22.6;;
54999;SDS011;40897;47.998;18.856;2024-02-15T08:50:00;24.2;;;23.0;;
54999;SDS011;40897;47.998;18.856;2024-02-15T08:55:00;21.5;;;20.9;;
54999;SDS011;40897;47.998;18.856;2024-02-15T09:00:01;19.4;;;18.8;;
54999;SDS011;40897;47.998;18.856;2024-02-15T09:05:00;25.5;;;24.3;;
54999;SDS011;40897;47.998;18.856;2024-02-15T09:10:00;18.6;;;18.3;;
54999;SDS011;40897;47.998;18.856;2024-02-15T09:15:00;18.8;;;18.4;;
54999;SDS011;40897;47.998;18.856;2024-02-15T09:20:00;18.1;;;17.6;;
54999;SDS011;40897;47.998;18.856;2024-02-15T09:25:00;19.8;;;19.1;;
54999;SDS011;40897;47.998;18.856;2024-02-15T09:30:00;19.1;;;18.5;;
54999;SDS011;40897;47.998;18.856;2024-02-15T09:35:00;17.0;;;16.5;;
54999;SDS011;40897;47.998;18.856;2024-02-15T09:40:00;15.1;;;14.8;;
54999;SDS011;40897;47.998;18.856;2024-02-15T09:45:00;12.2;;;12.0;;
54999;SDS011;40897;47.998;18.856;2024-02-15T09:50:00;14.7;;;14.5;;
54999;SDS011;40897;47.998;18.856;2024-02-15T09:55:00;16.5;;;15.7;;
54999;SDS011;40897;47.998;18.856;2024-02-15T10:00:01;13.3;;;13.0;;
54999;SDS011;40897;47.998;18.856;2024-02-15T10:05:00;13.0;;;13.0;;
54999;SDS011;40897;47.998;18.856;2024-02-15T10:10:13;15.5;;;15.2;;
54999;SDS011;40897;47.998;18.856;2024-02-15T10:15:00;13.3;;;13.3;;
54999;SDS011;40897;47.998;18.856;2024-02-15T10:20:04;12.8;;;12.8;;
54999;SDS011;40897;47.998;18.856;2024-02-15T10:25:15;12.9;;;12.9;;
54999;SDS011;40897;47.998;18.856;2024-02-15T10:30:10;13.0;;;13.0;;
54999;SDS011;40897;47.998;18.856;2024-02-15T10:35:00;14.1;;;13.9;;
54999;SDS011;40897;47.998;18.856;2024-02-15T10:40:03;14.9;;;14.8;;
54999;SDS011;40897;47.998;18.856;2024-02-15T10:45:01;13.3;;;13.0;;
54999;SDS011;40897;47.998;18.856;2024-02-15T10:50:00;14.6;;;14.4;;
54999;SDS011;40897;47.998;18.856;2024-02-15T10:55:03;14.0;;;13.6;;
54999;SDS011;40897;47.998;18.856;2024-02-15T11:00:00;16.0;;;15.4;;
54999;SDS011;40897;47.998;18.856;2024-02-15T11:05:02;15.6;;;15.2;;
54999;SDS011;40897;47.998;18.856;2024-02-15T11:10:00;15.6;;;15.5;;
54999;SDS011;40897;47.998;18.856;2024-02-15T11:15:00;14.4;;;14.2;;
54999;SDS011;40897;47.998;18.856;2024-02-15T11:20:00;14.3;;;13.9;;
54999;SDS011;40897;47.998;18.856;2024-02-15T11:25:00;14.4;;;14.0;;
54999;SDS011;40897;47.998;18.856;2024-02-15T11:30:00;14.3;;;13.9;;
54999;SDS011;40897;47.998;18.856;2024-02-15T11:35:02;14.6;;;13.8;;
54999;SDS011;40897;47.998;18.856;2024-02-15T11:40:00;14.9;;;14.6;;
54999;SDS011;40897;47.998;18.856;2024-02-15T11:45:04;13.9;;;13.4;;
54999;SDS011;40897;47.998;18.856;2024-02-15T11:50:00;16.0;;;15.7;;
54999;SDS011;40897;47.998;18.856;2024-02-15T11:55:07;16.2;;;15.7;;
54999;SDS011;40897;47.998;18.856;2024-02-15T12:00:00;17.5;;;17.0;;
54999;SDS011;40897;47.998;18.856;2024-02-15T12:05:00;17.6;;;17.3;;
54999;SDS011;40897;47.998;18.856;2024-02-15T12:10:00;16.6;;;16.4;;
54999;SDS011;40897;47.998;18.856;2024-02-15T12:15:00;17.8;;;17.2;;
54999;SDS011;40897;47.998;18.856;2024-02-15T12:20:02;16.2;;;15.8;;
54999;SDS011;40897;47.998;18.856;2024-02-15T12:25:01;18.1;;;17.6;;
54999;SDS011;40897;47.998;18.856;2024-02-15T12:30:00;16.2;;;15.6;;
54999;SDS011;40897;47.998;18.856;2024-02-15T12:40:09;15.9;;;15.6;;
54999;SDS011;40897;47.998;18.856;2024-02-15T12:45:00;17.0;;;16.6;;
54999;SDS011;40897;47.998;18.856;2024-02-15T12:50:12;16.6;;;16.2;;
54999;SDS011;40897;47.998;18.856;2024-02-15T12:55:16;17.6;;;17.1;;
54999;SDS011;40897;47.998;18.856;2024-02-15T13:00:00;17.2;;;16.8;;
54999;SDS011;40897;47.998;18.856;2024-02-15T13:05:00;17.1;;;16.7;;
54999;SDS011;40897;47.998;18.856;2024-02-15T13:10:00;17.0;;;16.7;;
54999;SDS011;40897;47.998;18.856;2024-02-15T13:15:01;19.8;;;18.9;;
54999;SDS011;40897;47.998;18.856;2024-02-15T13:20:00;16.9;;;16.5;;
54999;SDS011;40897;47.998;18.856;2024-02-15T13:25:00;15.7;;;15.2;;
54999;SDS011;40897;47.998;18.856;2024-02-15T13:30:00;17.7;;;17.2;;
54999;SDS011;40897;47.998;18.856;2024-02-15T13:35:00;16.1;;;16.1;;
54999;SDS011;40897;47.998;18.856;2024-02-15T13:40:00;13.9;;;13.4;;
54999;SDS011;40897;47.998;18.856;2024-02-15T13:45:00;13.6;;;13.4;;
54999;SDS011;40897;47.998;18.856;2024-02-15T13:50:00;20.8;;;20.1;;
54999;SDS011;40897;47.998;18.856;2024-02-15T13:55:00;19.2;;;18.2;;
54999;SDS011;40897;47.998;18.856;2024-02-15T14:00:00;13.6;;;13.2;;
54999;SDS011;40897;47.998;18.856;2024-02-15T14:05:00;13.0;;;12.9;;
54999;SDS011;40897;47.998;18.856;2024-02-15T14:10:00;15.1;;;14.5;;
54999;SDS011;40897;47.998;18.856;2024-02-15T14:15:00;13.0;;;13.0;;
54999;SDS011;40897;47.998;18.856;2024-02-15T14:20:00;15.2;;;14.8;;
54999;SDS011;40897;47.998;18.856;2024-02-15T14:25:00;13.5;;;13.3;;
54999;SDS011;40897;47.998;18.856;2024-02-15T14:30:00;15.0;;;14.5;;
54999;SDS011;40897;47.998;18.856;2024-02-15T14:35:00;11.0;;;10.7;;
54999;SDS011;40897;47.998;18.856;2024-02-15T14:40:00;13.0;;;12.7;;
54999;SDS011;40897;47.998;18.856;2024-02-15T14:45:00;12.3;;;12.2;;
54999;SDS011;40897;47.998;18.856;2024-02-15T14:50:00;13.0;;;12.9;;
54999;SDS011;40897;47.998;18.856;2024-02-15T14:55:00;14.5;;;14.1;;
54999;SDS011;40897;47.998;18.856;2024-02-15T15:00:00;13.8;;;13.7;;
54999;SDS011;40897;47.998;18.856;2024-02-15T15:05:00;15.9;;;15.4;;
54999;SDS011;40897;47.998;18.856;2024-02-15T15:10:00;17.7;;;17.3;;
54999;SDS011;40897;47.998;18.856;2024-02-15T15:15:00;13.0;;;12.8;;
54999;SDS011;40897;47.998;18.856;2024-02-15T15:20:00;15.3;;;15.1;;
54999;SDS011;40897;47.998;18.856;2024-02-15T15:25:00;13.0;;;12.8;;
54999;SDS011;40897;47.998;18.856;2024-02-15T15:30:00;18.3;;;17.8;;
54999;SDS011;40897;47.998;18.856;2024-02-15T15:35:00;19.8;;;19.6;;
54999;SDS011;40897;47.998;18.856;2024-02-15T15:40:00;20.5;;;19.9;;
54999;SDS011;40897;47.998;18.856;2024-02-15T15:45:03;20.2;;;19.7;;
54999;SDS011;40897;47.998;18.856;2024-02-15T15:50:00;20.7;;;20.1;;
54999;SDS011;40897;47.998;18.856;2024-02-15T15:55:00;20.6;;;20.4;;
54999;SDS011;40897;47.998;18.856;2024-02-15T16:00:00;21.2;;;20.7;;
54999;SDS011;40897;47.998;18.856;2024-02-15T16:05:00;23.9;;;22.9;;
54999;SDS011;40897;47.998;18.856;2024-02-15T16:10:00;25.1;;;24.4;;
54999;SDS011;40897;47.998;18.856;2024-02-15T16:15:00;25.1;;;24.3;;
54999;SDS011;40897;47.998;18.856;2024-02-15T16:20:00;23.9;;;23.0;;
54999;SDS011;40897;47.998;18.856;2024-02-15T16:25:00;33.4;;;32.2;;
54999;SDS011;40897;47.998;18.856;2024-02-15T16:30:00;34.4;;;33.3;;
54999;SDS011;40897;47.998;18.856;2024-02-15T16:35:00;30.9;;;30.0;;
54999;SDS011;40897;47.998;18.856;2024-02-15T16:40:00;31.4;;;30.3;;
54999;SDS011;40897;47.998;18.856;2024-02-15T16:45:00;29.6;;;28.8;;
54999;SDS011;40897;47.998;18.856;2024-02-15T16:50:00;28.6;;;27.2;;
54999;SDS011;40897;47.998;18.856;2024-02-15T16:55:00;33.6;;;31.7;;
54999;SDS011;40897;47.998;18.856;2024-02-15T17:00:00;32.0;;;30.9;;
54999;SDS011;40897;47.998;18.856;2024-02-15T17:05:00;38.9;;;37.0;;
54999;SDS011;40897;47.998;18.856;2024-02-15T17:10:00;31.3;;;30.3;;
54999;SDS011;40897;47.998;18.856;2024-02-15T17:15:00;34.9;;;33.6;;
54999;SDS011;40897;47.998;18.856;2024-02-15T17:20:00;35.0;;;33.7;;
54999;SDS011;40897;47.998;18.856;2024-02-15T17:25:00;57.9;;;52.0;;
54999;SDS011;40897;47.998;18.856;2024-02-15T17:30:00;58.7;;;52.7;;
54999;SDS011;40897;47.998;18.856;2024-02-15T17:35:00;38.5;;;36.3;;
54999;SDS011;40897;47.998;18.856;2024-02-15T17:40:00;35.6;;;34.4;;
54999;SDS011;40897;47.998;18.856;2024-02-15T17:45:00;25.2;;;24.5;;
54999;SDS011;40897;47.998;18.856;2024-02-15T17:50:00;31.2;;;29.7;;
54999;SDS011;40897;47.998;18.856;2024-02-15T17:55:00;29.2;;;28.7;;
54999;SDS011;40897;47.998;18.856;2024-02-15T18:00:00;32.1;;;31.3;;
54999;SDS011;40897;47.998;18.856;2024-02-15T18:05:00;35.3;;;34.5;;
54999;SDS011;40897;47.998;18.856;2024-02-15T18:10:00;41.0;;;39.6;;
54999;SDS011;40897;47.998;18.856;2024-02-15T18:15:00;37.9;;;37.7;;
54999;SDS011;40897;47.998;18.856;2024-02-15T18:20:00;40.6;;;39.0;;
54999;SDS011;40897;47.998;18.856;2024-02-15T18:25:00;38.3;;;36.7;;
54999;SDS011;40897;47.998;18.856;2024-02-15T18:30:00;33.7;;;33.0;;
54999;SDS011;40897;47.998;18.856;2024-02-15T18:35:00;32.6;;;31.7;;
54999;SDS011;40897;47.998;18.856;2024-02-15T18:40:00;34.7;;;33.8;;
54999;SDS011;40897;47.998;18.856;2024-02-15T18:45:01;51.6;;;49.3;;
54999;SDS011;40897;47.998;18.856;2024-02-15T18:50:00;49.1;;;47.3;;
54999;SDS011;40897;47.998;18.856;2024-02-15T18:55:00;47.7;;;47.2;;
54999;SDS011;40897;47.998;18.856;2024-02-15T19:00:00;40.5;;;39.7;;
54999;SDS011;40897;47.998;18.856;2024-02-15T19:05:00;28.3;;;28.0;;
54999;SDS011;40897;47.998;18.856;2024-02-15T19:10:00;42.4;;;41.9;;
54999;SDS011;40897;47.998;18.856;2024-02-15T19:15:00;38.3;;;38.0;;
54999;SDS011;40897;47.998;18.856;2024-02-15T19:20:00;34.6;;;34.6;;
54999;SDS011;40897;47.998;18.856;2024-02-15T19:25:00;26.3;;;26.2;;
54999;SDS011;40897;47.998;18.856;2024-02-15T19:30:00;32.8;;;32.7;;
54999;SDS011;40897;47.998;18.856;2024-02-15T19:35:00;29.1;;;28.7;;
54999;SDS011;40897;47.998;18.856;2024-02-15T19:40:00;21.9;;;21.7;;
54999;SDS011;40897;47.998;18.856;2024-02-15T19:45:00;35.0;;;35.0;;
54999;SDS011;40897;47.998;18.856;2024-02-15T19:50:00;33.7;;;33.2;;
54999;SDS011;40897;47.998;18.856;2024-02-15T19:55:00;32.2;;;31.7;;
54999;SDS011;40897;47.998;18.856;2024-02-15T20:00:00;29.7;;;28.7;;
54999;SDS011;40897;47.998;18.856;2024-02-15T20:05:00;36.1;;;34.7;;
54999;SDS011;40897;47.998;18.856;2024-02-15T20:10:00;41.6;;;39.1;;
54999;SDS011;40897;47.998;18.856;2024-02-15T20:15:00;36.2;;;34.4;;
54999;SDS011;40897;47.998;18.856;2024-02-15T20:20:00;34.0;;;32.9;;
54999;SDS011;40897;47.998;18.856;2024-02-15T20:25:00;36.7;;;35.7;;
54999;SDS011;40897;47.998;18.856;2024-02-15T20:30:00;43.0;;;40.9;;
54999;SDS011;40897;47.998;18.856;2024-02-15T20:35:00;43.2;;;40.8;;
54999;SDS011;40897;47.998;18.856;2024-02-15T20:40:00;41.3;;;39.0;;
54999;SDS011;40897;47.998;18.856;2024-02-15T20:45:00;39.4;;;37.3;;
54999;SDS011;40897;47.998;18.856;2024-02-15T20:50:00;39.9;;;38.0;;
54999;SDS011;40897;47.998;18.856;2024-02-15T20:55:00;39.1;;;36.5;;
54999;SDS011;40897;47.998;18.856;2024-02-15T21:00:00;39.3;;;37.3;;
54999;SDS011;40897;47.998;18.856;2024-02-15T21:05:00;40.2;;;38.1;;
54999;SDS011;40897;47.998;18.856;2024-02-15T21:10:00;31.2;;;30.2;;
54999;SDS011;40897;47.998;18.856;2024-02-15T21:15:00;36.7;;;34.8;;
54999;SDS011;40897;47.998;18.856;2024-02-15T21:20:00;37.7;;;36.0;;
54999;SDS011;40897;47.998;18.856;2024-02-15T21:25:00;36.3;;;34.3;;
54999;SDS011;40897;47.998;18.856;2024-02-15T21:30:01;35.7;;;34.0;;
54999;SDS011;40897;47.998;18.856;2024-02-15T21:35:01;36.3;;;34.0;;
54999;SDS011;40897;47.998;18.856;2024-02-15T21:40:00;32.2;;;30.6;;
54999;SDS011;40897;47.998;18.856;2024-02-15T21:45:00;25.9;;;25.2;;
54999;SDS011;40897;47.998;18.856;2024-02-15T21:50:01;27.7;;;26.6;;
54999;SDS011;40897;47.998;18.856;2024-02-15T21:55:00;27.2;;;26.6;;
54999;SDS011;40897;47.998;18.856;2024-02-15T22:00:00;26.4;;;25.4;;
54999;SDS011;40897;47.998;18.856;2024-02-15T22:05:00;26.7;;;25.9;;
54999;SDS011;40897;47.998;18.856;2024-02-15T22:10:01;27.2;;;26.6;;
54999;SDS011;40897;47.998;18.856;2024-02-15T22:15:00;28.6;;;28.0;;
54999;SDS011;40897;47.998;18.856;2024-02-15T22:20:00;27.6;;;26.7;;
54999;SDS011;40897;47.998;18.856;2024-02-15T22:25:00;29.3;;;28.3;;
54999;SDS011;40897;47.998;18.856;2024-02-15T22:30:00;26.2;;;25.5;;
54999;SDS011;40897;47.998;18.856;2024-02-15T22:35:00;27.7;;;26.6;;
54999;SDS011;40897;47.998;18.856;2024-02-15T22:40:00;30.5;;;28.8;;
54999;SDS011;40897;47.998;18.856;2024-02-15T22:45:00;28.5;;;27.5;;
54999;SDS011;40897;47.998;18.856;2024-02-15T22:50:00;30.1;;;29.3;;
54999;SDS011;40897;47.998;18.856;2024-02-15T22:55:00;29.8;;;28.8;;
54999;SDS011;40897;47.998;18.856;2024-02-15T23:00:00;30.9;;;29.7;;
54999;SDS011;40897;47.998;18.856;2024-02-15T23:05:00;32.7;;;30.6;;
54999;SDS011;40897;47.998;18.856;2024-02-15T23:10:02;29.0;;;27.8;;
54999;SDS011;40897;47.998;18.856;2024-02-15T23:15:00;28.7;;;27.8;;
54999;SDS011;40897;47.998;18.856;2024-02-15T23:20:00;31.2;;;29.9;;
54999;SDS011;40897;47.998;18.856;2024-02-15T23:25:00;28.2;;;27.1;;
54999;SDS011;40897;47.998;18.856;2024-02-15T23:30:00;25.9;;;24.9;;
54999;SDS011;40897;47.998;18.856;2024-02-15T23:35:00;28.3;;;27.3;;
54999;SDS011;40897;47.998;18.856;2024-02-15T23:40:00;28.5;;;27.3;;
54999;SDS011;40897;47.998;18.856;2024-02-15T23:45:00;28.9;;;27.3;;
54999;SDS011;40897;47.998;18.856;2024-02-15T23:50:00;33.8;;;30.9;;
54999;SDS011;40897;47.998;18.856;2024-02-15T23:55:00;28.3;;;26.9;;
